Time;durP1;ratioP1;P1;durP2;ratioP2;P2;SDS_P1;SDS_P2;PMS_P1;PMS_P2;Temp;Humidity;BMP_temperature;BMP_pressure;BME280_temperature;BME280_humidity;BME280_pressure;Samples;Min_cycle;Max_cycle;Signal;HPM_P1;HPM_P2
2022/09/02 00:00:21;;;;;;;11.90;4.28;;;18.10;99.90;;;;;;4974859;28;20474;-53
2022/09/02 00:02:48;;;;;;;13.57;4.60;;;18.10;99.90;;;;;;4974940;28;20129;-51
2022/09/02 00:05:15;;;;;;;17.35;4.70;;;18.10;99.90;;;;;;4975240;28;20074;-51
2022/09/02 00:07:42;;;;;;;13.48;3.58;;;18.10;99.90;;;;;;4975134;28;20050;-51
2022/09/02 00:10:09;;;;;;;14.02;4.00;;;18.10;99.90;;;;;;4974400;28;20453;-51
2022/09/02 00:12:35;;;;;;;10.18;3.38;;;18.10;99.90;;;;;;4970615;28;20042;-52
2022/09/02 00:15:02;;;;;;;12.13;3.78;;;18.10;99.90;;;;;;4955393;29;20043;-50
2022/09/02 00:17:29;;;;;;;10.82;4.10;;;18.10;99.90;;;;;;4954998;29;20043;-55
2022/09/02 00:19:56;;;;;;;12.30;3.70;;;18.10;99.90;;;;;;4955712;29;20039;-52
2022/09/02 00:22:22;;;;;;;17.48;3.88;;;18.20;99.90;;;;;;4955777;28;20571;-53
2022/09/02 00:24:49;;;;;;;8.68;3.58;;;18.10;99.90;;;;;;4954953;28;20051;-50
2022/09/02 00:27:16;;;;;;;13.70;3.80;;;18.20;99.90;;;;;;4955314;28;20431;-53
2022/09/02 00:29:43;;;;;;;11.55;4.13;;;18.20;99.90;;;;;;4953718;28;20506;-53
2022/09/02 00:32:10;;;;;;;16.20;3.50;;;18.20;99.90;;;;;;4954932;29;20127;-50
2022/09/02 00:34:36;;;;;;;12.10;3.78;;;18.20;99.90;;;;;;4954191;28;20055;-53
2022/09/02 00:37:03;;;;;;;10.05;3.80;;;18.20;99.90;;;;;;4953839;28;20066;-51
2022/09/02 00:39:31;;;;;;;11.95;3.80;;;18.20;99.90;;;;;;4956916;28;20467;-51
2022/09/02 00:41:57;;;;;;;11.80;3.80;;;18.20;99.90;;;;;;4958790;28;20047;-52
2022/09/02 00:44:24;;;;;;;8.20;3.30;;;18.20;99.90;;;;;;4958415;28;20061;-50
2022/09/02 00:46:51;;;;;;;10.13;3.50;;;18.30;99.90;;;;;;4959002;29;20066;-52
2022/09/02 00:49:18;;;;;;;16.70;3.92;;;18.30;99.90;;;;;;4957027;29;20414;-53
2022/09/02 00:51:45;;;;;;;12.70;3.97;;;18.30;99.90;;;;;;4958800;28;20127;-51
2022/09/02 00:54:11;;;;;;;7.82;3.70;;;18.30;99.90;;;;;;4958645;28;20534;-50
2022/09/02 00:56:38;;;;;;;14.50;3.67;;;18.30;99.90;;;;;;4952438;28;20039;-52
2022/09/02 00:59:05;;;;;;;9.13;3.75;;;18.20;99.90;;;;;;4958116;29;20113;-51
2022/09/02 01:01:32;;;;;;;8.90;3.80;;;18.20;99.90;;;;;;4951185;28;20052;-51
2022/09/02 01:03:59;;;;;;;12.00;3.75;;;18.10;99.90;;;;;;4937652;29;20047;-53
2022/09/02 01:06:26;;;;;;;11.57;3.83;;;18.10;99.90;;;;;;4938824;29;20078;-53
2022/09/02 01:08:53;;;;;;;11.75;3.72;;;18.10;99.90;;;;;;4943061;29;20502;-49
2022/09/02 01:11:20;;;;;;;11.18;3.55;;;18.10;99.90;;;;;;4938762;29;20065;-51
2022/09/02 01:13:47;;;;;;;10.25;4.07;;;18.10;99.90;;;;;;4945581;29;20062;-52
2022/09/02 01:16:14;;;;;;;11.73;4.07;;;18.10;99.90;;;;;;4948091;28;20431;-51
2022/09/02 01:18:42;;;;;;;9.25;3.42;;;18.10;99.90;;;;;;4938575;29;20130;-55
2022/09/02 01:21:09;;;;;;;12.27;3.85;;;18.10;99.90;;;;;;4941032;29;20043;-54
2022/09/02 01:23:37;;;;;;;8.90;3.67;;;18.10;99.90;;;;;;4941331;29;20039;-52
2022/09/02 01:26:06;;;;;;;11.82;4.00;;;18.00;99.90;;;;;;4956381;29;20051;-56
2022/09/02 01:28:32;;;;;;;10.63;3.72;;;18.00;99.90;;;;;;4954480;29;20050;-50
2022/09/02 01:30:59;;;;;;;9.73;3.90;;;18.00;99.90;;;;;;4956281;29;20047;-54
2022/09/02 01:33:26;;;;;;;7.32;3.50;;;18.00;99.90;;;;;;4955370;28;20106;-53
2022/09/02 01:35:52;;;;;;;11.55;4.07;;;18.00;99.90;;;;;;4957437;28;20039;-54
2022/09/02 01:38:19;;;;;;;11.63;3.70;;;17.90;99.90;;;;;;4956382;28;20051;-54
2022/09/02 01:40:46;;;;;;;10.73;3.38;;;18.00;99.90;;;;;;4955897;29;20455;-52
2022/09/02 01:43:13;;;;;;;7.47;3.53;;;18.00;99.90;;;;;;4955574;28;20055;-55
2022/09/02 01:45:40;;;;;;;10.88;4.00;;;17.90;99.90;;;;;;4956219;29;20486;-54
2022/09/02 01:48:10;;;;;;;12.27;3.50;;;17.90;99.90;;;;;;4956224;29;20047;-51
2022/09/02 01:50:37;;;;;;;9.43;3.78;;;18.00;99.90;;;;;;4955252;28;20039;-53
2022/09/02 01:53:09;;;;;;;9.18;3.60;;;18.00;99.90;;;;;;4955730;28;20055;-54
2022/09/02 01:55:36;;;;;;;7.32;3.25;;;18.00;99.90;;;;;;4951406;29;20448;-51
2022/09/02 01:58:03;;;;;;;11.00;3.63;;;18.00;99.90;;;;;;4941765;28;20044;-52
2022/09/02 02:00:30;;;;;;;11.43;3.63;;;18.00;99.90;;;;;;4957278;28;20043;-54
2022/09/02 02:02:57;;;;;;;11.27;3.33;;;18.00;99.90;;;;;;4954545;28;20071;-53
2022/09/02 02:05:24;;;;;;;9.73;3.10;;;18.00;99.90;;;;;;4956124;28;20039;-55
2022/09/02 02:07:52;;;;;;;8.93;2.92;;;17.90;99.90;;;;;;4954294;28;20522;-54
2022/09/02 02:10:18;;;;;;;9.30;3.13;;;17.90;99.90;;;;;;4955142;29;20039;-53
2022/09/02 02:12:47;;;;;;;9.07;3.28;;;17.90;99.90;;;;;;4952972;28;20071;-55
2022/09/02 02:15:15;;;;;;;13.10;3.20;;;18.00;99.90;;;;;;4937202;29;20035;-52
2022/09/02 02:17:42;;;;;;;10.18;3.47;;;18.00;99.90;;;;;;4937362;29;20039;-51
2022/09/02 02:20:09;;;;;;;8.80;3.40;;;17.90;99.90;;;;;;4941239;29;20043;-52
2022/09/02 02:22:36;;;;;;;8.20;3.17;;;17.90;99.90;;;;;;4956407;28;20123;-55
2022/09/02 02:25:02;;;;;;;8.57;3.35;;;18.00;99.90;;;;;;4957079;29;20050;-53
2022/09/02 02:27:29;;;;;;;10.43;3.25;;;18.00;99.90;;;;;;4956395;29;20047;-50
2022/09/02 02:30:00;;;;;;;9.82;3.53;;;18.00;99.90;;;;;;4954915;29;20438;-52
2022/09/02 02:32:31;;;;;;;7.30;2.92;;;18.00;99.90;;;;;;4955000;29;20383;-52
2022/09/02 02:34:59;;;;;;;7.72;3.10;;;18.00;99.90;;;;;;4953887;28;20545;-54
2022/09/02 02:37:26;;;;;;;11.88;3.55;;;18.00;99.90;;;;;;4955140;28;20043;-53
2022/09/02 02:39:53;;;;;;;8.15;2.70;;;18.00;99.90;;;;;;4938184;28;20055;-52
2022/09/02 02:42:20;;;;;;;8.60;2.90;;;18.00;99.90;;;;;;4935875;29;20138;-54
2022/09/02 02:44:47;;;;;;;10.40;3.15;;;18.00;99.90;;;;;;4935935;29;20051;-54
2022/09/02 02:47:15;;;;;;;10.65;3.22;;;18.00;99.90;;;;;;4939929;29;20054;-54
2022/09/02 02:49:41;;;;;;;8.63;3.20;;;18.00;99.90;;;;;;4936001;29;20047;-55
2022/09/02 02:52:08;;;;;;;11.90;3.42;;;18.00;99.90;;;;;;4954899;28;20553;-55
2022/09/02 02:54:36;;;;;;;9.73;2.97;;;18.00;99.90;;;;;;4954885;28;20039;-54
2022/09/02 02:57:03;;;;;;;9.40;3.30;;;17.90;99.90;;;;;;4955364;29;20048;-54
2022/09/02 02:59:30;;;;;;;14.25;3.35;;;17.90;99.90;;;;;;4955896;28;20047;-56
2022/09/02 03:01:57;;;;;;;11.95;3.40;;;17.90;99.90;;;;;;4954497;28;20498;-55
2022/09/02 03:04:25;;;;;;;11.95;3.10;;;17.90;99.90;;;;;;4954237;28;20051;-54
2022/09/02 03:06:52;;;;;;;8.25;3.10;;;17.90;99.90;;;;;;4954575;28;20051;-53
2022/09/02 03:09:19;;;;;;;8.40;2.90;;;17.90;99.90;;;;;;4956287;28;20039;-55
2022/09/02 03:11:46;;;;;;;11.52;3.30;;;17.90;99.90;;;;;;4954525;28;20408;-52
2022/09/02 03:14:12;;;;;;;6.95;3.25;;;17.90;99.90;;;;;;4955693;28;20407;-53
2022/09/02 03:16:40;;;;;;;11.45;3.28;;;17.90;99.90;;;;;;4954376;28;20039;-53
2022/09/02 03:19:06;;;;;;;11.63;3.38;;;17.90;99.90;;;;;;4949960;28;20043;-56
2022/09/02 03:21:33;;;;;;;13.82;3.30;;;17.90;99.90;;;;;;4941970;29;20094;-53
2022/09/02 03:24:05;;;;;;;11.40;3.92;;;17.90;99.90;;;;;;4954275;28;20062;-54
2022/09/02 03:26:32;;;;;;;11.50;4.18;;;17.90;99.90;;;;;;4954290;29;20051;-55
2022/09/02 03:28:59;;;;;;;10.98;3.63;;;17.80;99.90;;;;;;4955216;28;20053;-54
2022/09/02 03:31:26;;;;;;;8.60;3.22;;;17.80;99.90;;;;;;4956001;28;20044;-53
2022/09/02 03:33:54;;;;;;;12.55;4.28;;;17.80;99.90;;;;;;4954811;28;20470;-54
2022/09/02 03:36:22;;;;;;;7.32;3.65;;;17.80;99.90;;;;;;4954902;29;20043;-54
2022/09/02 03:38:49;;;;;;;9.00;3.67;;;17.80;99.90;;;;;;4954266;28;20043;-54
2022/09/02 03:41:16;;;;;;;10.82;4.22;;;17.80;99.90;;;;;;4954293;29;20051;-53
2022/09/02 03:43:43;;;;;;;8.60;3.38;;;17.80;99.90;;;;;;4953441;28;20053;-51
2022/09/02 03:46:12;;;;;;;8.15;3.40;;;17.80;99.90;;;;;;4955358;28;20043;-53
2022/09/02 03:48:39;;;;;;;8.70;3.53;;;17.80;99.90;;;;;;4937193;28;20044;-52
2022/09/02 03:51:09;;;;;;;11.32;3.63;;;17.80;99.90;;;;;;4940886;29;20039;-53
2022/09/02 03:53:37;;;;;;;14.52;4.28;;;17.80;99.90;;;;;;4938670;29;20076;-54
2022/09/02 03:56:05;;;;;;;12.75;3.60;;;17.80;99.90;;;;;;4953993;29;20372;-54
2022/09/02 03:58:32;;;;;;;13.85;4.20;;;17.80;99.90;;;;;;4954077;28;20071;-54
2022/09/02 04:01:00;;;;;;;8.57;3.25;;;17.80;99.90;;;;;;4953434;28;20094;-52
2022/09/02 04:03:27;;;;;;;7.78;3.80;;;17.80;99.90;;;;;;4953878;29;20134;-51
2022/09/02 04:05:54;;;;;;;8.85;3.60;;;17.80;99.90;;;;;;4953039;29;20130;-56
2022/09/02 04:08:23;;;;;;;8.02;3.35;;;17.80;99.90;;;;;;4954290;28;20106;-52
2022/09/02 04:10:51;;;;;;;13.00;3.72;;;17.80;99.90;;;;;;4954416;28;20407;-54
2022/09/02 04:13:18;;;;;;;9.90;3.47;;;17.70;99.90;;;;;;4955182;28;20035;-53
2022/09/02 04:15:47;;;;;;;11.05;3.58;;;17.70;99.90;;;;;;4957785;28;20063;-55
2022/09/02 04:18:16;;;;;;;9.65;3.00;;;17.70;99.90;;;;;;4947325;29;20106;-55
2022/09/02 04:20:43;;;;;;;11.30;3.38;;;17.70;99.90;;;;;;4957353;29;20043;-52
2022/09/02 04:23:10;;;;;;;8.45;3.70;;;17.70;99.90;;;;;;4957259;29;20490;-53
2022/09/02 04:25:39;;;;;;;9.93;3.60;;;17.70;99.90;;;;;;4946788;29;20051;-53
2022/09/02 04:28:06;;;;;;;9.82;3.45;;;17.70;99.90;;;;;;4954280;29;20057;-56
2022/09/02 04:30:33;;;;;;;9.68;3.80;;;17.80;99.90;;;;;;4958427;29;20090;-53
2022/09/02 04:33:00;;;;;;;10.40;3.83;;;17.80;99.90;;;;;;4957563;28;20067;-52
2022/09/02 04:35:27;;;;;;;10.27;3.90;;;17.70;99.90;;;;;;4957134;29;20094;-53
2022/09/02 04:37:54;;;;;;;10.05;3.35;;;17.80;99.90;;;;;;4959082;29;20047;-52
2022/09/02 04:40:22;;;;;;;9.95;3.65;;;17.80;99.90;;;;;;4951950;29;20110;-57
2022/09/02 04:42:52;;;;;;;10.98;4.15;;;17.80;99.90;;;;;;4937832;29;20051;-53
2022/09/02 04:45:21;;;;;;;11.52;4.05;;;17.80;99.90;;;;;;4939333;29;20081;-54
2022/09/02 04:47:55;;;;;;;9.90;3.47;;;17.70;99.90;;;;;;4957220;28;20051;-52
2022/09/02 04:50:22;;;;;;;7.75;3.40;;;17.70;99.90;;;;;;4957392;28;20047;-55
2022/09/02 04:52:56;;;;;;;10.90;3.60;;;17.60;99.90;;;;;;4957629;28;20047;-52
2022/09/02 04:55:24;;;;;;;11.13;3.83;;;17.60;99.90;;;;;;4956863;29;20454;-55
2022/09/02 04:57:51;;;;;;;11.00;3.95;;;17.60;99.90;;;;;;4957525;29;20379;-52
2022/09/02 05:00:19;;;;;;;13.10;4.18;;;17.60;99.90;;;;;;4949618;29;20483;-55
2022/09/02 05:02:47;;;;;;;12.90;3.97;;;17.70;99.90;;;;;;4938197;29;20106;-52
2022/09/02 05:05:14;;;;;;;11.48;3.60;;;17.60;99.90;;;;;;4956748;28;20043;-50
2022/09/02 05:07:41;;;;;;;11.27;4.05;;;17.60;99.90;;;;;;4957579;29;20078;-54
2022/09/02 05:10:08;;;;;;;12.52;3.90;;;17.60;99.90;;;;;;4957420;28;20043;-53
2022/09/02 05:12:39;;;;;;;8.10;3.80;;;17.50;99.90;;;;;;4946692;28;20047;-56
2022/09/02 05:15:07;;;;;;;10.35;3.88;;;17.50;99.90;;;;;;4956467;28;20043;-53
2022/09/02 05:17:35;;;;;;;14.73;3.92;;;17.50;99.90;;;;;;4955800;28;20046;-52
2022/09/02 05:20:02;;;;;;;9.60;3.90;;;17.50;99.90;;;;;;4956322;28;20055;-55
2022/09/02 05:22:30;;;;;;;11.00;3.78;;;17.50;99.90;;;;;;4950133;29;20505;-55
2022/09/02 05:24:58;;;;;;;12.55;4.00;;;17.50;99.90;;;;;;4936385;29;20066;-55
2022/09/02 05:27:27;;;;;;;10.82;3.70;;;17.50;99.90;;;;;;4951591;29;20070;-52
2022/09/02 05:29:55;;;;;;;16.25;4.07;;;17.50;99.90;;;;;;4956354;29;20078;-53
2022/09/02 05:32:22;;;;;;;9.73;4.28;;;17.60;99.90;;;;;;4945312;28;20047;-52
2022/09/02 05:34:50;;;;;;;9.85;4.50;;;17.60;99.90;;;;;;4943714;29;20442;-53
2022/09/02 05:37:17;;;;;;;10.73;4.65;;;17.60;99.90;;;;;;4956085;29;20147;-53
2022/09/02 05:39:45;;;;;;;10.18;4.70;;;17.60;99.90;;;;;;4929237;29;20044;-53
2022/09/02 05:42:12;;;;;;;11.00;4.75;;;17.60;99.90;;;;;;4936954;29;20056;-51
2022/09/02 05:44:39;;;;;;;13.93;5.05;;;17.60;99.90;;;;;;4936908;29;20075;-50
2022/09/02 05:47:06;;;;;;;11.90;4.72;;;17.60;99.90;;;;;;4937285;29;20127;-50
2022/09/02 05:49:33;;;;;;;14.18;4.95;;;17.60;99.90;;;;;;4936754;29;20054;-51
2022/09/02 05:52:10;;;;;;;12.50;4.40;;;17.60;99.90;;;;;;4937330;29;20074;-54
2022/09/02 05:54:48;;;;;;;10.00;4.28;;;17.70;99.90;;;;;;4953556;29;20047;-52
2022/09/02 05:57:17;;;;;;;12.85;4.20;;;17.70;99.90;;;;;;4956067;29;20135;-50
2022/09/02 06:00:00;;;;;;;12.13;4.68;;;17.70;99.90;;;;;;4955317;29;20499;-50
2022/09/02 06:02:46;;;;;;;13.60;4.40;;;17.70;99.90;;;;;;4955649;28;20087;-49
2022/09/02 06:05:19;;;;;;;10.68;4.40;;;17.60;99.90;;;;;;4953189;29;20051;-50
2022/09/02 06:07:53;;;;;;;12.52;4.38;;;17.60;99.90;;;;;;4936760;29;20054;-52
2022/09/02 06:10:22;;;;;;;11.88;4.30;;;17.60;99.90;;;;;;4936770;29;20047;-53
2022/09/02 06:12:49;;;;;;;15.90;5.30;;;17.60;99.90;;;;;;4954558;28;20044;-52
2022/09/02 06:15:19;;;;;;;13.05;4.30;;;17.60;99.90;;;;;;4955255;29;20541;-52
2022/09/02 06:17:47;;;;;;;10.52;4.32;;;17.60;99.90;;;;;;4955323;29;20051;-53
2022/09/02 06:20:14;;;;;;;11.30;4.25;;;17.70;99.90;;;;;;4953774;29;20066;-50
2022/09/02 06:22:43;;;;;;;12.50;4.50;;;17.60;99.90;;;;;;4954271;28;20055;-53
2022/09/02 06:25:10;;;;;;;11.80;3.85;;;17.70;99.90;;;;;;4955430;29;20094;-54
2022/09/02 06:27:37;;;;;;;11.32;3.90;;;17.70;99.90;;;;;;4955181;28;20125;-57
2022/09/02 06:30:04;;;;;;;12.18;4.25;;;17.80;99.90;;;;;;4944363;28;20039;-55
2022/09/02 06:32:31;;;;;;;13.48;4.32;;;17.80;99.90;;;;;;4940841;29;20054;-55
2022/09/02 06:35:02;;;;;;;11.80;4.60;;;17.80;99.90;;;;;;4953709;29;20450;-56
2022/09/02 06:37:33;;;;;;;13.52;4.45;;;17.80;99.90;;;;;;4949958;28;20466;-56
2022/09/02 06:39:59;;;;;;;16.98;4.25;;;17.80;99.90;;;;;;4954787;29;20055;-51
2022/09/02 06:42:28;;;;;;;12.18;3.95;;;17.80;99.90;;;;;;4936874;29;20051;-53
2022/09/02 06:45:27;;;;;;;11.80;4.00;;;17.90;99.90;;;;;;4935919;29;20393;-56
2022/09/02 06:47:57;;;;;;;12.27;4.10;;;17.90;99.90;;;;;;4954710;28;20130;-54
2022/09/02 06:50:24;;;;;;;11.73;4.00;;;18.00;99.90;;;;;;4954772;29;20488;-53
2022/09/02 06:52:54;;;;;;;14.05;4.30;;;18.00;99.90;;;;;;4954441;28;20061;-54
2022/09/02 06:55:22;;;;;;;12.40;4.40;;;18.10;99.90;;;;;;4954870;29;20051;-55
2022/09/02 06:57:48;;;;;;;17.40;4.50;;;18.10;99.90;;;;;;4955133;28;20094;-54
2022/09/02 07:00:15;;;;;;;15.15;4.40;;;18.20;99.90;;;;;;4941483;28;20048;-52
2022/09/02 07:02:42;;;;;;;13.07;4.70;;;18.20;99.90;;;;;;4944503;29;20070;-55
2022/09/02 07:05:10;;;;;;;12.05;4.82;;;18.20;99.90;;;;;;4955405;28;20376;-53
2022/09/02 07:07:37;;;;;;;16.88;5.32;;;18.20;99.90;;;;;;4954519;28;20074;-55
2022/09/02 07:10:08;;;;;;;13.32;4.47;;;18.20;99.90;;;;;;4953189;29;20039;-51
2022/09/02 07:12:36;;;;;;;15.95;4.43;;;18.20;99.90;;;;;;4935688;29;20143;-56
2022/09/02 07:15:07;;;;;;;14.32;4.53;;;18.10;99.90;;;;;;4935897;29;20043;-53
2022/09/02 07:17:37;;;;;;;14.80;4.40;;;18.20;99.90;;;;;;4954218;29;20143;-52
2022/09/02 07:20:08;;;;;;;13.60;4.07;;;18.30;99.90;;;;;;4955656;29;20059;-54
2022/09/02 07:22:55;;;;;;;11.93;4.15;;;18.30;99.90;;;;;;4954147;28;20537;-53
2022/09/02 07:25:24;;;;;;;15.63;4.20;;;18.40;99.90;;;;;;4954658;29;20051;-56
2022/09/02 07:27:51;;;;;;;12.77;4.47;;;18.40;99.90;;;;;;4938383;29;20507;-51
2022/09/02 07:30:18;;;;;;;15.00;5.43;;;18.40;99.90;;;;;;4936054;28;20078;-56
2022/09/02 07:32:50;;;;;;;12.48;4.75;;;18.40;99.90;;;;;;4944563;28;20098;-52
2022/09/02 07:35:20;;;;;;;16.48;4.80;;;18.50;99.90;;;;;;4953585;28;20431;-54
2022/09/02 07:37:48;;;;;;;15.50;4.35;;;18.50;99.90;;;;;;4954150;29;20035;-54
2022/09/02 07:40:15;;;;;;;16.23;4.68;;;18.50;99.90;;;;;;4941256;29;20054;-55
2022/09/02 07:42:43;;;;;;;16.17;4.82;;;18.50;99.90;;;;;;4947582;28;20490;-55
2022/09/02 07:45:10;;;;;;;12.65;4.35;;;18.60;99.90;;;;;;4953865;28;20058;-51
2022/09/02 07:47:39;;;;;;;17.02;4.75;;;18.60;99.90;;;;;;4940705;28;20070;-52
2022/09/02 07:50:09;;;;;;;20.13;5.18;;;18.70;99.90;;;;;;4949495;29;20054;-52
2022/09/02 07:52:53;;;;;;;15.57;4.57;;;18.80;99.90;;;;;;4953825;28;20098;-53
2022/09/02 07:55:20;;;;;;;16.33;4.93;;;18.80;99.90;;;;;;4958010;29;20050;-53
2022/09/02 07:57:48;;;;;;;20.02;4.80;;;18.90;99.90;;;;;;4957685;29;20047;-53
2022/09/02 08:00:18;;;;;;;16.90;4.75;;;19.00;99.90;;;;;;4947672;29;20454;-51
2022/09/02 08:02:48;;;;;;;15.85;4.75;;;19.10;99.90;;;;;;4957755;29;20047;-55
2022/09/02 08:05:21;;;;;;;12.27;4.25;;;19.10;99.90;;;;;;4940962;29;20435;-52
2022/09/02 08:07:47;;;;;;;12.02;5.10;;;19.20;99.90;;;;;;4943613;29;20495;-52
2022/09/02 08:10:15;;;;;;;14.38;4.80;;;19.20;99.90;;;;;;4958788;28;20043;-51
2022/09/02 08:12:42;;;;;;;14.93;4.80;;;19.20;99.90;;;;;;4959164;28;20043;-52
2022/09/02 08:15:09;;;;;;;12.20;4.22;;;19.30;99.90;;;;;;4957398;28;20050;-54
2022/09/02 08:17:35;;;;;;;16.35;5.00;;;19.30;99.90;;;;;;4957538;28;20051;-53
2022/09/02 08:20:02;;;;;;;13.85;4.47;;;19.40;99.90;;;;;;4957568;28;20036;-52
2022/09/02 08:22:29;;;;;;;11.73;4.25;;;19.50;99.90;;;;;;4955018;28;20036;-53
2022/09/02 08:24:56;;;;;;;15.15;5.22;;;19.50;99.90;;;;;;4956388;28;20078;-52
2022/09/02 08:27:23;;;;;;;15.43;4.68;;;19.60;99.90;;;;;;4956239;28;20043;-54
2022/09/02 08:29:50;;;;;;;14.07;5.00;;;19.60;99.90;;;;;;4955470;29;20073;-55
2022/09/02 08:32:17;;;;;;;16.55;4.97;;;19.70;99.90;;;;;;4958356;28;20086;-56
2022/09/02 08:34:44;;;;;;;15.63;5.00;;;19.80;99.90;;;;;;4955945;28;20047;-53
2022/09/02 08:37:11;;;;;;;16.02;4.95;;;19.90;99.90;;;;;;4953902;28;20109;-53
2022/09/02 08:39:38;;;;;;;15.52;4.35;;;19.90;99.90;;;;;;4955929;28;20095;-54
2022/09/02 08:42:04;;;;;;;16.88;4.80;;;19.90;99.90;;;;;;4956797;29;20122;-52
2022/09/02 08:44:31;;;;;;;13.20;4.50;;;20.00;99.90;;;;;;4957577;28;20114;-51
2022/09/02 08:46:58;;;;;;;13.15;4.70;;;20.00;99.90;;;;;;4957511;28;20387;-53
2022/09/02 08:49:25;;;;;;;21.17;4.93;;;20.10;99.90;;;;;;4939222;29;20039;-56
2022/09/02 08:51:52;;;;;;;12.65;4.82;;;20.20;99.90;;;;;;4945720;29;20039;-55
2022/09/02 08:54:19;;;;;;;19.02;4.57;;;20.30;99.90;;;;;;4956685;28;20085;-52
2022/09/02 08:56:47;;;;;;;16.63;4.07;;;20.30;99.90;;;;;;4955448;29;20102;-53
2022/09/02 08:59:14;;;;;;;16.17;3.85;;;20.30;99.90;;;;;;4955622;28;20456;-53
2022/09/02 09:01:43;;;;;;;16.17;4.03;;;20.30;99.90;;;;;;4956085;28;20089;-55
2022/09/02 09:04:09;;;;;;;18.45;4.47;;;20.30;99.90;;;;;;4951046;28;20039;-54
2022/09/02 09:06:37;;;;;;;16.90;4.65;;;20.30;99.90;;;;;;4955525;29;20427;-54
2022/09/02 09:09:03;;;;;;;15.13;4.10;;;20.30;99.90;;;;;;4956402;28;20055;-53
2022/09/02 09:11:30;;;;;;;16.02;4.72;;;20.40;99.90;;;;;;4957283;29;20043;-53
2022/09/02 09:13:59;;;;;;;12.43;4.65;;;20.40;99.90;;;;;;4955213;28;20476;-55
2022/09/02 09:16:26;;;;;;;17.73;4.60;;;20.50;99.90;;;;;;4957572;29;20471;-51
2022/09/02 09:18:57;;;;;;;19.55;5.20;;;20.60;99.90;;;;;;4956245;29;20047;-50
2022/09/02 09:21:24;;;;;;;20.27;4.13;;;20.60;99.90;;;;;;4955390;28;20117;-54
2022/09/02 09:23:56;;;;;;;16.30;4.43;;;20.70;99.90;;;;;;4956731;28;20114;-55
2022/09/02 09:26:23;;;;;;;9.57;3.65;;;20.80;99.90;;;;;;4955657;29;20036;-53
2022/09/02 09:28:54;;;;;;;11.63;4.32;;;20.90;99.90;;;;;;4969657;28;20067;-56
2022/09/02 09:31:21;;;;;;;15.30;4.28;;;21.00;99.90;;;;;;4951124;29;20039;-52
2022/09/02 09:33:48;;;;;;;16.38;4.20;;;21.00;99.90;;;;;;4954560;28;20043;-54
2022/09/02 09:36:16;;;;;;;15.13;3.65;;;21.00;99.90;;;;;;4957613;28;20102;-53
2022/09/02 09:38:42;;;;;;;12.75;3.75;;;21.00;99.90;;;;;;4956395;28;20067;-55
2022/09/02 09:41:09;;;;;;;14.80;3.80;;;21.10;99.90;;;;;;4954435;29;20066;-53
2022/09/02 09:43:36;;;;;;;15.50;3.47;;;21.20;99.90;;;;;;4954419;28;20047;-52
2022/09/02 09:46:03;;;;;;;16.30;3.88;;;21.30;99.90;;;;;;4956769;29;20054;-55
2022/09/02 09:48:30;;;;;;;14.05;3.42;;;21.30;99.90;;;;;;4954966;28;20574;-54
2022/09/02 09:50:57;;;;;;;13.63;3.72;;;21.30;99.90;;;;;;4952121;29;20039;-52
2022/09/02 09:53:24;;;;;;;13.43;3.83;;;21.30;99.90;;;;;;4955759;28;20071;-50
2022/09/02 09:55:50;;;;;;;11.70;3.20;;;21.40;99.90;;;;;;4955592;29;20045;-52
2022/09/02 09:58:17;;;;;;;10.45;3.67;;;21.40;99.90;;;;;;4956338;28;20046;-52
2022/09/02 10:00:44;;;;;;;13.93;3.47;;;21.60;99.90;;;;;;4953803;28;20129;-56
2022/09/02 10:03:11;;;;;;;11.38;3.17;;;21.70;99.90;;;;;;4952006;29;20114;-55
2022/09/02 10:05:38;;;;;;;8.80;2.72;;;21.80;99.90;;;;;;4954577;28;20035;-55
2022/09/02 10:08:04;;;;;;;11.80;2.80;;;21.90;99.90;;;;;;4956250;28;20094;-51
2022/09/02 10:10:41;;;;;;;8.57;2.65;;;21.90;99.90;;;;;;4954968;28;20061;-55
2022/09/02 10:13:07;;;;;;;8.20;2.90;;;22.00;99.90;;;;;;4956008;28;20039;-52
2022/09/02 10:15:34;;;;;;;8.98;2.70;;;22.10;99.90;;;;;;4955387;28;20078;-55
2022/09/02 10:18:04;;;;;;;10.20;2.92;;;22.20;99.70;;;;;;4956451;28;20531;-53
2022/09/02 10:20:30;;;;;;;7.95;2.60;;;22.30;99.90;;;;;;4949354;29;20430;-54
2022/09/02 10:22:57;;;;;;;10.35;2.75;;;22.30;99.80;;;;;;4953400;28;20107;-53
2022/09/02 10:25:26;;;;;;;10.68;2.78;;;22.40;99.90;;;;;;4949976;28;20086;-55
2022/09/02 10:27:53;;;;;;;11.82;2.83;;;22.40;99.80;;;;;;4952903;29;20039;-55
2022/09/02 10:30:20;;;;;;;8.30;2.65;;;22.40;99.40;;;;;;4955203;28;20506;-54
2022/09/02 10:32:47;;;;;;;9.27;2.85;;;22.50;99.40;;;;;;4956840;28;20039;-52
2022/09/02 10:35:14;;;;;;;11.95;2.70;;;22.50;98.10;;;;;;4955132;28;20035;-54
2022/09/02 10:37:41;;;;;;;13.35;3.08;;;22.60;99.10;;;;;;4955084;29;20042;-54
2022/09/02 10:40:07;;;;;;;11.02;2.83;;;22.70;98.20;;;;;;4956480;28;20455;-50
2022/09/02 10:42:34;;;;;;;8.80;2.50;;;22.70;97.70;;;;;;4950504;28;20062;-53
2022/09/02 10:45:01;;;;;;;11.20;2.88;;;22.70;98.80;;;;;;4954917;29;20146;-55
2022/09/02 10:47:28;;;;;;;9.25;2.90;;;22.90;98.50;;;;;;4954816;28;20040;-55
2022/09/02 10:49:57;;;;;;;9.20;2.33;;;23.00;97.40;;;;;;4954448;29;20039;-53
2022/09/02 10:52:24;;;;;;;6.30;2.17;;;23.00;97.70;;;;;;4954702;28;20386;-51
2022/09/02 10:54:50;;;;;;;8.77;2.28;;;23.10;97.50;;;;;;4956285;28;20122;-51
2022/09/02 10:57:18;;;;;;;5.05;2.25;;;23.10;96.50;;;;;;4954166;28;20035;-55
2022/09/02 10:59:45;;;;;;;6.72;2.20;;;23.20;96.10;;;;;;4955069;28;20050;-52
2022/09/02 11:02:12;;;;;;;7.22;2.40;;;23.20;95.80;;;;;;4955135;29;20043;-55
2022/09/02 11:04:38;;;;;;;9.48;2.40;;;23.30;95.40;;;;;;4953913;28;20047;-56
2022/09/02 11:07:05;;;;;;;12.30;2.50;;;23.30;95.10;;;;;;4955970;28;20066;-54
2022/09/02 11:09:32;;;;;;;4.65;2.08;;;23.30;94.30;;;;;;4953679;29;20442;-55
2022/09/02 11:11:59;;;;;;;6.60;2.50;;;23.20;94.60;;;;;;4954712;28;20510;-56
2022/09/02 11:14:26;;;;;;;9.68;2.50;;;23.30;94.80;;;;;;4952355;28;20174;-56
2022/09/02 11:16:59;;;;;;;10.85;2.45;;;23.30;93.80;;;;;;4953476;28;20040;-50
2022/09/02 11:19:27;;;;;;;8.85;2.22;;;23.20;93.20;;;;;;4953292;29;20039;-55
2022/09/02 11:21:55;;;;;;;5.53;2.10;;;23.30;94.00;;;;;;4947354;29;20047;-54
2022/09/02 11:24:22;;;;;;;7.22;2.17;;;23.30;93.60;;;;;;4946494;29;20051;-54
2022/09/02 11:26:49;;;;;;;7.32;2.15;;;23.30;93.10;;;;;;4948720;29;20054;-52
2022/09/02 11:29:16;;;;;;;9.43;2.13;;;23.50;93.20;;;;;;4952709;28;20043;-55
2022/09/02 11:31:42;;;;;;;8.00;2.20;;;23.60;92.80;;;;;;4950293;28;20482;-55
2022/09/02 11:34:09;;;;;;;7.85;2.45;;;23.70;93.20;;;;;;4953512;28;20454;-55
2022/09/02 11:36:36;;;;;;;9.52;2.60;;;23.70;93.10;;;;;;4952530;28;20048;-53
2022/09/02 11:39:03;;;;;;;5.22;2.45;;;23.90;92.60;;;;;;4954466;28;20035;-54
2022/09/02 11:41:30;;;;;;;8.25;2.10;;;23.90;93.10;;;;;;4953414;28;20094;-55
2022/09/02 11:44:01;;;;;;;12.30;2.65;;;23.90;92.80;;;;;;4952615;28;20039;-53
2022/09/02 11:46:29;;;;;;;6.43;2.20;;;23.90;91.90;;;;;;4953576;28;20033;-54
2022/09/02 11:48:56;;;;;;;7.45;2.38;;;23.90;92.20;;;;;;4953522;28;20517;-54
2022/09/02 11:51:23;;;;;;;11.52;2.50;;;24.00;92.50;;;;;;4951832;28;20040;-53
2022/09/02 11:53:50;;;;;;;8.73;2.42;;;24.10;92.90;;;;;;4954069;28;20054;-54
2022/09/02 11:56:23;;;;;;;8.25;2.45;;;24.30;92.80;;;;;;4953910;28;20122;-54
2022/09/02 11:58:51;;;;;;;7.57;2.50;;;24.40;93.10;;;;;;4950221;29;20101;-54
2022/09/02 12:01:18;;;;;;;7.63;2.60;;;24.60;92.60;;;;;;4953899;28;20067;-53
2022/09/02 12:03:51;;;;;;;9.90;2.40;;;24.70;91.60;;;;;;4953894;28;20107;-56
2022/09/02 12:06:38;;;;;;;3.75;2.08;;;24.80;92.10;;;;;;4952512;29;20070;-51
2022/09/02 12:09:05;;;;;;;6.90;2.80;;;25.00;91.40;;;;;;4951288;28;20046;-54
2022/09/02 12:11:36;;;;;;;6.00;2.83;;;25.10;91.20;;;;;;4952937;29;20051;-55
2022/09/02 12:14:03;;;;;;;7.70;3.47;;;25.20;90.90;;;;;;4949144;29;20087;-54
2022/09/02 12:16:33;;;;;;;5.63;2.70;;;25.20;90.80;;;;;;4952294;29;20066;-51
2022/09/02 12:19:06;;;;;;;5.68;3.30;;;25.20;90.90;;;;;;4946541;29;20375;-56
2022/09/02 12:21:34;;;;;;;8.27;2.78;;;25.20;90.30;;;;;;4953181;29;20043;-57
2022/09/02 12:24:01;;;;;;;7.55;3.03;;;25.10;90.90;;;;;;4953924;28;20039;-55
2022/09/02 12:26:28;;;;;;;12.23;3.30;;;25.10;90.60;;;;;;4950760;29;20118;-57
2022/09/02 12:28:56;;;;;;;11.80;3.03;;;25.10;90.70;;;;;;4949004;28;20272;-57
2022/09/02 12:31:23;;;;;;;7.85;2.92;;;25.00;90.60;;;;;;4944778;28;20035;-56
2022/09/02 12:33:52;;;;;;;5.10;2.67;;;25.00;90.60;;;;;;4952726;28;20099;-57
2022/09/02 12:36:19;;;;;;;4.70;2.78;;;25.00;90.40;;;;;;4956531;28;20118;-56
2022/09/02 12:38:46;;;;;;;6.15;2.58;;;25.00;90.90;;;;;;4953466;29;20111;-57
2022/09/02 12:41:13;;;;;;;5.20;2.90;;;25.00;91.20;;;;;;4956464;29;20383;-57
2022/09/02 12:43:40;;;;;;;4.95;2.45;;;25.00;91.10;;;;;;4957741;28;20047;-55